Time;durP1;ratioP1;P1;durP2;ratioP2;P2;SDS_P1;SDS_P2;PMS_P1;PMS_P2;Temp;Humidity;BMP_temperature;BMP_pressure;BME280_temperature;BME280_humidity;BME280_pressure;Samples;Min_cycle;Max_cycle;Signal;HPM_P1;HPM_P2
2022/01/23 00:02:09;;;;;;;;;57.00;46.25;;;;;;;;4991799;28;45705;-84
2022/01/23 00:04:35;;;;;;;;;56.75;44.25;;;;;;;;4974598;28;46223;-82
2022/01/23 00:07:04;;;;;;;;;57.50;43.25;;;;;;;;5005738;28;45680;-84
2022/01/23 00:09:30;;;;;;;;;54.00;45.00;;;;;;;;4995727;28;46129;-84
2022/01/23 00:11:56;;;;;;;;;55.75;45.25;;;;;;;;4992262;28;45470;-85
2022/01/23 00:17:18;;;;;;;;;56.75;45.50;;;;;;;;4998080;28;45530;-84
2022/01/23 00:19:44;;;;;;;;;54.25;42.75;;;;;;;;4995442;28;45456;-84
2022/01/23 00:22:11;;;;;;;;;55.50;43.75;;;;;;;;4991361;28;45535;-84
2022/01/23 00:32:48;;;;;;;;;54.00;42.75;;;;;;;;4994982;28;45908;-84
2022/01/23 00:35:14;;;;;;;;;50.67;41.67;;;;;;;;4990832;28;45419;-81
2022/01/23 00:37:39;;;;;;;;;52.67;42.33;;;;;;;;4992143;28;45633;-83
2022/01/23 00:40:05;;;;;;;;;57.00;45.00;;;;;;;;4976691;28;45689;-83
2022/01/23 00:42:30;;;;;;;;;53.50;43.50;;;;;;;;5007576;28;45716;-83
2022/01/23 00:47:36;;;;;;;;;53.50;41.50;;;;;;;;4991738;28;45941;-84
2022/01/23 00:50:01;;;;;;;;;49.67;41.33;;;;;;;;4991732;28;45763;-83
2022/01/23 00:52:26;;;;;;;;;49.00;40.67;;;;;;;;4992471;28;45683;-83
2022/01/23 00:54:51;;;;;;;;;55.67;45.33;;;;;;;;4994174;28;46002;-83
2022/01/23 00:57:16;;;;;;;;;45.33;39.33;;;;;;;;4993084;28;45648;-85
2022/01/23 00:59:42;;;;;;;;;41.33;37.00;;;;;;;;4994732;28;45680;-84
2022/01/23 01:02:07;;;;;;;;;43.67;35.00;;;;;;;;4995257;28;45737;-83
2022/01/23 01:04:32;;;;;;;;;44.33;37.00;;;;;;;;4995742;28;45498;-84
2022/01/23 01:06:57;;;;;;;;;54.00;39.00;;;;;;;;4995254;28;45522;-85
2022/01/23 01:09:22;;;;;;;;;44.33;37.00;;;;;;;;4978115;28;45748;-83
2022/01/23 01:11:57;;;;;;;;;42.00;36.33;;;;;;;;4995487;28;45640;-85
2022/01/23 01:17:29;;;;;;;;;44.25;36.00;;;;;;;;4967221;28;45757;-84
2022/01/23 01:33:28;;;;;;;;;49.25;42.50;;;;;;;;4995220;28;45646;-85
2022/01/23 01:36:01;;;;;;;;;57.50;45.25;;;;;;;;4974312;28;46362;-84
2022/01/23 01:38:27;;;;;;;;;60.25;45.25;;;;;;;;4975158;28;45702;-84
2022/01/23 01:40:52;;;;;;;;;58.67;47.00;;;;;;;;4975451;28;45709;-84
2022/01/23 01:43:17;;;;;;;;;54.00;42.75;;;;;;;;4987029;28;45460;-84
2022/01/23 01:45:44;;;;;;;;;49.00;41.00;;;;;;;;4988576;28;48143;-84
2022/01/23 01:48:10;;;;;;;;;53.00;42.75;;;;;;;;4994536;28;45586;-84
2022/01/23 01:50:35;;;;;;;;;45.75;40.50;;;;;;;;4995886;28;45503;-83
2022/01/23 01:53:01;;;;;;;;;59.75;45.00;;;;;;;;4987292;28;45564;-84
2022/01/23 01:55:38;;;;;;;;;50.00;42.50;;;;;;;;4994906;28;46064;-83
2022/01/23 01:58:05;;;;;;;;;55.25;39.75;;;;;;;;4986198;28;45322;-85
2022/01/23 02:08:27;;;;;;;;;47.25;39.75;;;;;;;;5009553;28;45770;-85
2022/01/23 02:10:57;;;;;;;;;52.00;41.00;;;;;;;;5006400;28;45738;-84
2022/01/23 02:13:37;;;;;;;;;45.00;39.00;;;;;;;;4994675;28;45465;-83
2022/01/23 02:51:51;;;;;;;;;47.00;40.25;;;;;;;;4990013;28;45423;-85
2022/01/23 02:54:21;;;;;;;;;41.00;36.50;;;;;;;;4996456;28;45377;-83
2022/01/23 02:56:52;;;;;;;;;44.25;39.50;;;;;;;;4993997;28;45682;-83
2022/01/23 03:04:24;;;;;;;;;45.50;40.00;;;;;;;;4994134;28;45407;-85
2022/01/23 03:14:56;;;;;;;;;44.75;37.75;;;;;;;;5013196;28;45481;-84
2022/01/23 03:26:12;;;;;;;;;41.75;35.25;;;;;;;;5004898;28;45564;-84
2022/01/23 03:28:34;;;;;;;;;40.75;37.00;;;;;;;;5011201;28;45718;-85
2022/01/23 03:31:21;;;;;;;;;34.00;33.25;;;;;;;;5003991;28;45556;-85
2022/01/23 03:33:46;;;;;;;;;43.00;34.50;;;;;;;;5002779;28;45560;-84
2022/01/23 03:36:11;;;;;;;;;36.50;33.00;;;;;;;;4995165;28;45577;-84
2022/01/23 03:38:37;;;;;;;;;38.33;33.33;;;;;;;;5010107;28;45762;-84
2022/01/23 03:41:02;;;;;;;;;36.67;33.33;;;;;;;;5012893;28;45810;-85
2022/01/23 03:43:31;;;;;;;;;51.50;39.25;;;;;;;;5013030;28;45606;-84
2022/01/23 03:46:19;;;;;;;;;31.50;29.75;;;;;;;;5006377;28;45634;-84
2022/01/23 03:51:10;;;;;;;;;38.50;29.75;;;;;;;;4993793;28;45456;-84
2022/01/23 03:53:36;;;;;;;;;33.50;31.25;;;;;;;;4992537;28;45660;-84
2022/01/23 03:56:02;;;;;;;;;36.25;29.25;;;;;;;;4992908;28;45581;-84
2022/01/23 03:58:27;;;;;;;;;36.50;31.50;;;;;;;;4975377;28;45462;-83
2022/01/23 04:00:53;;;;;;;;;29.67;28.00;;;;;;;;4978911;28;46997;-84
2022/01/23 04:03:19;;;;;;;;;26.75;25.50;;;;;;;;4992624;28;45415;-84
2022/01/23 04:05:44;;;;;;;;;29.50;25.75;;;;;;;;4995522;28;45398;-82
2022/01/23 04:08:15;;;;;;;;;33.75;31.00;;;;;;;;4982971;28;45691;-84
2022/01/23 04:10:40;;;;;;;;;33.50;32.75;;;;;;;;4992487;28;45490;-85
2022/01/23 05:01:01;;;;;;;;;34.00;30.50;;;;;;;;4986743;28;45388;-82
2022/01/23 05:04:05;;;;;;;;;37.75;30.50;;;;;;;;4957234;28;47270;-81
2022/01/23 05:06:20;;;;;;;;;32.00;29.50;;;;;;;;4972259;28;45853;-82
2022/01/23 05:08:46;;;;;;;;;37.25;32.75;;;;;;;;4957097;28;45394;-84
2022/01/23 05:11:12;;;;;;;;;35.00;31.00;;;;;;;;4974534;28;45697;-83
2022/01/23 05:13:37;;;;;;;;;34.75;33.00;;;;;;;;4969957;28;48360;-83
2022/01/23 05:16:03;;;;;;;;;40.33;34.33;;;;;;;;4976829;28;45301;-82
2022/01/23 05:18:28;;;;;;;;;32.00;30.50;;;;;;;;4991635;28;45452;-84
2022/01/23 05:21:05;;;;;;;;;31.00;29.00;;;;;;;;4976784;28;45362;-82
2022/01/23 05:23:31;;;;;;;;;33.00;28.50;;;;;;;;4998240;28;46859;-84
2022/01/23 05:25:56;;;;;;;;;29.50;26.75;;;;;;;;4989702;28;45571;-80
2022/01/23 05:28:21;;;;;;;;;32.75;28.50;;;;;;;;4978190;28;45826;-83
2022/01/23 05:30:48;;;;;;;;;36.67;35.67;;;;;;;;4987787;28;45415;-84
2022/01/23 05:33:13;;;;;;;;;31.25;27.50;;;;;;;;5009849;28;45383;-84
2022/01/23 05:35:38;;;;;;;;;32.33;28.00;;;;;;;;4978110;28;45595;-83
2022/01/23 05:38:03;;;;;;;;;38.67;33.00;;;;;;;;4976336;28;45482;-82
2022/01/23 05:40:30;;;;;;;;;35.67;33.00;;;;;;;;4983409;28;45304;-84
2022/01/23 05:42:55;;;;;;;;;38.75;31.25;;;;;;;;4979144;28;46268;-83
2022/01/23 05:45:20;;;;;;;;;32.67;30.00;;;;;;;;4979464;28;45458;-83
2022/01/23 05:47:46;;;;;;;;;36.00;33.00;;;;;;;;4974332;28;45416;-82
2022/01/23 05:50:11;;;;;;;;;36.33;32.33;;;;;;;;4978427;28;45402;-83
2022/01/23 05:52:36;;;;;;;;;41.00;33.67;;;;;;;;4982827;28;46314;-83
2022/01/23 05:55:03;;;;;;;;;33.33;29.33;;;;;;;;4974551;28;45796;-84
2022/01/23 05:57:28;;;;;;;;;41.75;31.50;;;;;;;;4977152;28;45402;-84
2022/01/23 05:59:53;;;;;;;;;36.67;29.33;;;;;;;;4979308;28;45643;-84
2022/01/23 06:02:18;;;;;;;;;32.00;29.67;;;;;;;;4985304;28;45289;-84
2022/01/23 06:04:44;;;;;;;;;35.00;33.33;;;;;;;;4980463;28;45522;-83
2022/01/23 06:07:09;;;;;;;;;42.33;35.33;;;;;;;;4972713;28;45797;-84
2022/01/23 06:09:37;;;;;;;;;32.33;26.00;;;;;;;;4978402;28;45766;-84
2022/01/23 06:12:02;;;;;;;;;22.00;21.00;;;;;;;;4978218;28;45533;-84
2022/01/23 06:14:28;;;;;;;;;29.75;26.00;;;;;;;;4982913;28;45648;-84
2022/01/23 06:16:53;;;;;;;;;32.33;27.00;;;;;;;;4985407;28;45398;-83
2022/01/23 06:19:18;;;;;;;;;22.75;19.00;;;;;;;;4984376;28;45420;-84
2022/01/23 06:21:44;;;;;;;;;25.67;24.00;;;;;;;;4999287;28;46234;-85
2022/01/23 06:24:14;;;;;;;;;21.25;20.00;;;;;;;;5004122;28;45820;-85
2022/01/23 06:26:43;;;;;;;;;24.25;21.25;;;;;;;;4977872;28;45476;-84
2022/01/23 06:29:08;;;;;;;;;29.50;26.00;;;;;;;;4976257;28;45466;-85
2022/01/23 06:31:34;;;;;;;;;26.00;25.75;;;;;;;;4984419;28;46284;-84
2022/01/23 06:34:00;;;;;;;;;25.33;23.00;;;;;;;;4980751;28;45485;-83
2022/01/23 06:36:25;;;;;;;;;22.25;20.00;;;;;;;;4998943;28;45751;-84
2022/01/23 06:38:50;;;;;;;;;31.67;27.67;;;;;;;;5005742;28;45356;-84
2022/01/23 06:41:15;;;;;;;;;23.33;21.00;;;;;;;;4998107;28;47725;-82
2022/01/23 06:43:40;;;;;;;;;29.67;24.67;;;;;;;;4985473;28;45439;-85
2022/01/23 06:46:06;;;;;;;;;22.33;21.00;;;;;;;;5002109;28;45505;-84
2022/01/23 06:48:31;;;;;;;;;25.33;20.00;;;;;;;;4999864;28;45824;-82
2022/01/23 06:50:56;;;;;;;;;21.67;21.00;;;;;;;;4993835;28;48082;-81
2022/01/23 06:53:21;;;;;;;;;21.67;17.00;;;;;;;;5007611;28;45044;-85
2022/01/23 06:55:47;;;;;;;;;24.67;18.33;;;;;;;;4983926;28;45412;-82
2022/01/23 06:58:12;;;;;;;;;18.33;18.33;;;;;;;;4986967;28;45704;-85
2022/01/23 07:00:37;;;;;;;;;20.00;16.00;;;;;;;;5002813;28;46481;-83
2022/01/23 07:03:02;;;;;;;;;20.67;19.00;;;;;;;;4986447;28;45175;-82
2022/01/23 07:05:28;;;;;;;;;20.33;16.67;;;;;;;;5006253;28;45400;-81
2022/01/23 07:07:53;;;;;;;;;15.75;13.25;;;;;;;;4988788;28;45963;-84
2022/01/23 07:10:20;;;;;;;;;16.00;14.25;;;;;;;;4999909;28;45364;-81
2022/01/23 07:12:45;;;;;;;;;21.75;16.25;;;;;;;;4986272;28;45455;-84
2022/01/23 07:15:10;;;;;;;;;17.00;16.00;;;;;;;;4976711;28;45834;-84
2022/01/23 07:17:40;;;;;;;;;17.67;16.33;;;;;;;;4976263;28;45555;-83
2022/01/23 07:20:05;;;;;;;;;15.25;13.00;;;;;;;;4996123;28;46448;-84
2022/01/23 07:22:30;;;;;;;;;8.50;8.50;;;;;;;;4976173;28;45409;-84
2022/01/23 07:25:00;;;;;;;;;17.33;14.33;;;;;;;;4993247;28;45591;-83
2022/01/23 07:27:28;;;;;;;;;21.00;17.00;;;;;;;;5004580;28;45823;-81
2022/01/23 07:29:54;;;;;;;;;15.75;14.00;;;;;;;;4992732;28;46483;-84
2022/01/23 07:32:19;;;;;;;;;17.50;16.00;;;;;;;;4975451;28;45646;-81
2022/01/23 07:34:44;;;;;;;;;16.33;15.00;;;;;;;;5012628;28;45335;-84
2022/01/23 07:37:12;;;;;;;;;18.33;16.67;;;;;;;;4992599;28;45370;-84
2022/01/23 07:39:37;;;;;;;;;18.50;17.00;;;;;;;;4993196;28;46472;-81
2022/01/23 07:42:03;;;;;;;;;21.50;16.50;;;;;;;;4978435;28;45787;-81
2022/01/23 07:44:28;;;;;;;;;16.50;15.50;;;;;;;;4987006;28;45395;-80
2022/01/23 07:46:54;;;;;;;;;17.00;15.50;;;;;;;;4998708;28;45366;-81
2022/01/23 07:49:20;;;;;;;;;24.00;19.67;;;;;;;;4998298;28;45435;-83
2022/01/23 07:51:45;;;;;;;;;17.00;15.75;;;;;;;;5011157;28;45754;-81
2022/01/23 07:54:10;;;;;;;;;16.33;15.67;;;;;;;;5008890;28;45306;-80
2022/01/23 07:56:38;;;;;;;;;26.33;22.00;;;;;;;;5013448;28;45215;-81
2022/01/23 07:59:04;;;;;;;;;21.00;16.75;;;;;;;;5023763;28;46168;-83
2022/01/23 08:01:30;;;;;;;;;19.67;17.00;;;;;;;;5018806;28;45242;-81
2022/01/23 08:03:55;;;;;;;;;21.50;17.00;;;;;;;;5000604;28;45445;-81
2022/01/23 08:06:22;;;;;;;;;15.00;15.00;;;;;;;;4996131;28;45784;-82
2022/01/23 08:08:48;;;;;;;;;22.00;20.00;;;;;;;;5004323;28;46732;-83
2022/01/23 08:11:13;;;;;;;;;20.50;16.00;;;;;;;;5012219;28;45347;-84
2022/01/23 08:13:38;;;;;;;;;21.33;17.00;;;;;;;;5007799;28;45300;-83
2022/01/23 08:16:04;;;;;;;;;22.67;18.67;;;;;;;;5005583;28;45219;-83
2022/01/23 08:18:29;;;;;;;;;22.00;21.25;;;;;;;;4986061;28;48474;-84
2022/01/23 08:20:54;;;;;;;;;33.00;27.67;;;;;;;;4986829;28;45523;-82
2022/01/23 08:23:21;;;;;;;;;22.33;20.33;;;;;;;;4998777;28;45905;-83
2022/01/23 08:25:46;;;;;;;;;18.50;17.50;;;;;;;;5001616;28;45439;-84
2022/01/23 08:28:11;;;;;;;;;11.33;11.00;;;;;;;;4994196;28;45544;-84
2022/01/23 08:30:36;;;;;;;;;20.67;17.33;;;;;;;;5000896;28;45632;-80
2022/01/23 08:33:02;;;;;;;;;18.25;17.00;;;;;;;;4973246;28;45551;-83
2022/01/23 08:35:28;;;;;;;;;24.50;19.00;;;;;;;;4977146;28;45624;-84
2022/01/23 08:37:53;;;;;;;;;19.75;19.00;;;;;;;;4991219;28;45750;-84
2022/01/23 08:40:23;;;;;;;;;25.75;21.00;;;;;;;;4990240;28;45662;-83
2022/01/23 08:42:50;;;;;;;;;18.25;15.75;;;;;;;;4974151;28;45367;-82
2022/01/23 08:45:15;;;;;;;;;18.50;16.25;;;;;;;;4977417;28;45429;-81
2022/01/23 08:47:41;;;;;;;;;17.00;16.33;;;;;;;;4995331;28;46983;-82
2022/01/23 08:50:07;;;;;;;;;20.75;16.75;;;;;;;;4983863;28;46122;-83
2022/01/23 08:52:32;;;;;;;;;15.50;15.00;;;;;;;;5011238;28;45521;-81
2022/01/23 08:54:57;;;;;;;;;21.67;18.67;;;;;;;;5019342;28;45282;-82
2022/01/23 08:57:23;;;;;;;;;15.67;13.67;;;;;;;;5018549;28;45453;-82
2022/01/23 08:59:49;;;;;;;;;12.75;12.50;;;;;;;;5010788;28;45696;-83
2022/01/23 09:02:15;;;;;;;;;15.00;13.00;;;;;;;;5010951;28;45361;-83
2022/01/23 09:04:40;;;;;;;;;19.50;13.00;;;;;;;;5002738;28;45476;-83
2022/01/23 09:07:05;;;;;;;;;16.00;14.00;;;;;;;;5016738;28;45343;-83
2022/01/23 09:09:36;;;;;;;;;16.67;13.00;;;;;;;;5002283;28;45379;-82
2022/01/23 09:12:06;;;;;;;;;18.75;15.75;;;;;;;;5020753;28;45322;-82
2022/01/23 09:14:31;;;;;;;;;13.00;11.75;;;;;;;;5019478;28;45354;-82
2022/01/23 09:16:56;;;;;;;;;20.50;17.25;;;;;;;;4976510;28;47901;-83
2022/01/23 09:19:22;;;;;;;;;13.50;11.50;;;;;;;;4996280;28;45531;-81
2022/01/23 09:21:51;;;;;;;;;14.75;14.75;;;;;;;;5003893;28;45532;-82
2022/01/23 09:24:18;;;;;;;;;16.50;15.25;;;;;;;;5003996;28;45413;-81
2022/01/23 09:26:45;;;;;;;;;16.50;16.25;;;;;;;;5004179;28;45574;-81
2022/01/23 09:29:23;;;;;;;;;15.75;15.25;;;;;;;;4979135;28;45519;-81
2022/01/23 09:31:48;;;;;;;;;12.50;11.00;;;;;;;;5000952;28;45715;-81
2022/01/23 09:34:18;;;;;;;;;21.00;17.67;;;;;;;;4996648;28;45446;-81
2022/01/23 09:36:43;;;;;;;;;18.50;17.00;;;;;;;;4970975;28;47988;-82
2022/01/23 09:39:10;;;;;;;;;23.00;21.50;;;;;;;;4991274;28;45336;-82
2022/01/23 09:41:36;;;;;;;;;17.50;15.25;;;;;;;;4992330;28;45450;-82
2022/01/23 09:44:01;;;;;;;;;26.00;21.00;;;;;;;;4974535;28;45604;-78
2022/01/23 09:46:27;;;;;;;;;20.50;19.00;;;;;;;;4991551;28;46481;-78
2022/01/23 09:48:52;;;;;;;;;24.00;23.00;;;;;;;;4992516;28;45408;-77
2022/01/23 09:51:24;;;;;;;;;16.00;13.25;;;;;;;;4993136;28;45630;-78
2022/01/23 09:53:54;;;;;;;;;8.00;6.50;;;;;;;;4990683;28;45309;-79
2022/01/23 09:56:27;;;;;;;;;13.50;11.25;;;;;;;;4991610;28;45412;-78
2022/01/23 09:58:53;;;;;;;;;16.25;15.00;;;;;;;;4991671;28;45505;-77
2022/01/23 10:01:18;;;;;;;;;25.75;24.50;;;;;;;;4992380;28;45739;-77
2022/01/23 10:03:43;;;;;;;;;13.33;12.00;;;;;;;;4992094;28;45604;-78
2022/01/23 10:06:10;;;;;;;;;9.67;9.33;;;;;;;;4991794;28;46655;-78
2022/01/23 10:08:36;;;;;;;;;10.75;8.00;;;;;;;;4990803;28;46030;-78
2022/01/23 10:11:05;;;;;;;;;12.50;11.00;;;;;;;;5002570;28;45352;-79
2022/01/23 10:13:30;;;;;;;;;32.00;28.75;;;;;;;;5010534;28;45314;-79
2022/01/23 10:15:55;;;;;;;;;15.00;15.00;;;;;;;;5009768;28;46078;-77
2022/01/23 10:18:20;;;;;;;;;15.67;15.00;;;;;;;;5010374;28;45112;-78
2022/01/23 10:20:46;;;;;;;;;10.67;8.67;;;;;;;;5010397;28;45137;-79
2022/01/23 10:23:12;;;;;;;;;16.50;15.50;;;;;;;;5009280;28;45150;-79
2022/01/23 10:25:40;;;;;;;;;16.00;16.00;;;;;;;;5001794;28;46150;-77
2022/01/23 10:28:08;;;;;;;;;29.50;25.25;;;;;;;;4973535;28;45910;-77
2022/01/23 10:30:33;;;;;;;;;28.50;27.75;;;;;;;;4990204;28;45566;-76
2022/01/23 10:33:00;;;;;;;;;11.33;7.00;;;;;;;;4995615;28;45219;-76
2022/01/23 10:35:25;;;;;;;;;31.75;26.75;;;;;;;;4999294;28;45580;-77
2022/01/23 10:37:52;;;;;;;;;56.00;46.25;;;;;;;;4991137;28;45966;-77
2022/01/23 10:40:27;;;;;;;;;38.25;32.25;;;;;;;;4991444;28;46031;-79
2022/01/23 10:50:42;;;;;;;;;13.75;11.75;;;;;;;;4996993;28;45606;-78
2022/01/23 10:53:07;;;;;;;;;13.00;11.67;;;;;;;;5009756;28;45653;-77
2022/01/23 10:55:34;;;;;;;;;10.67;9.33;;;;;;;;5011537;28;46733;-78
2022/01/23 10:58:01;;;;;;;;;16.00;12.25;;;;;;;;4990348;28;45585;-77
2022/01/23 11:00:35;;;;;;;;;15.00;13.50;;;;;;;;4990549;28;45703;-77
2022/01/23 11:03:10;;;;;;;;;11.00;10.50;;;;;;;;4990718;28;45436;-77
2022/01/23 11:05:37;;;;;;;;;16.75;13.50;;;;;;;;4990845;28;46555;-78
2022/01/23 11:08:17;;;;;;;;;19.25;15.00;;;;;;;;4992190;28;45586;-79
2022/01/23 11:10:51;;;;;;;;;14.25;12.75;;;;;;;;5010613;28;45475;-79
2022/01/23 11:19:15;;;;;;;;;14.25;11.00;;;;;;;;4970966;28;45855;-77
2022/01/23 11:21:41;;;;;;;;;13.75;11.50;;;;;;;;4970482;28;45776;-79
2022/01/23 11:24:07;;;;;;;;;10.25;10.25;;;;;;;;4971060;28;45612;-79
2022/01/23 11:26:32;;;;;;;;;8.00;7.33;;;;;;;;4992720;28;46159;-81
2022/01/23 11:29:06;;;;;;;;;13.00;12.00;;;;;;;;4992747;28;45409;-79
2022/01/23 11:31:32;;;;;;;;;12.25;11.75;;;;;;;;5002446;28;45538;-78
2022/01/23 11:33:58;;;;;;;;;11.67;11.00;;;;;;;;4995883;28;45466;-77
2022/01/23 11:36:23;;;;;;;;;15.25;12.75;;;;;;;;4992466;28;46281;-79
2022/01/23 11:38:50;;;;;;;;;12.00;11.00;;;;;;;;5005088;28;45343;-78
2022/01/23 11:54:50;;;;;;;;;16.25;14.75;;;;;;;;5004887;28;45076;-79
2022/01/23 11:57:34;;;;;;;;;19.75;18.50;;;;;;;;4997144;28;45513;-79
2022/01/23 12:00:11;;;;;;;;;15.75;12.25;;;;;;;;4977824;28;45520;-79
2022/01/23 12:02:39;;;;;;;;;11.75;10.75;;;;;;;;4997656;28;45397;-80
2022/01/23 12:05:21;;;;;;;;;19.00;13.00;;;;;;;;4994749;28;45626;-80
2022/01/23 12:08:06;;;;;;;;;15.75;12.00;;;;;;;;4992277;28;45569;-80
2022/01/23 12:10:48;;;;;;;;;13.50;13.00;;;;;;;;4992709;28;45298;-80
2022/01/23 12:13:55;;;;;;;;;16.00;13.75;;;;;;;;5011514;28;45446;-80
2022/01/23 12:16:31;;;;;;;;;14.50;11.00;;;;;;;;4981253;28;45477;-80
2022/01/23 12:19:15;;;;;;;;;14.00;12.75;;;;;;;;4990899;28;45446;-79
2022/01/23 12:21:40;;;;;;;;;15.75;14.50;;;;;;;;4971588;28;45390;-79
2022/01/23 12:24:06;;;;;;;;;17.50;15.75;;;;;;;;4991631;28;45740;-79
2022/01/23 12:26:32;;;;;;;;;16.00;15.00;;;;;;;;4996504;28;45718;-78
2022/01/23 12:29:09;;;;;;;;;18.75;15.75;;;;;;;;4990866;28;45872;-78
2022/01/23 12:31:34;;;;;;;;;14.75;13.25;;;;;;;;4992248;28;45554;-80
2022/01/23 12:34:02;;;;;;;;;17.33;16.00;;;;;;;;4993384;28;45419;-78
2022/01/23 12:36:28;;;;;;;;;14.00;13.75;;;;;;;;4984625;28;45468;-79
2022/01/23 12:38:56;;;;;;;;;27.00;25.75;;;;;;;;4987477;28;46163;-80
2022/01/23 12:41:23;;;;;;;;;13.75;13.75;;;;;;;;4995044;28;46006;-79
2022/01/23 12:44:01;;;;;;;;;25.50;21.75;;;;;;;;4994679;28;46067;-81
2022/01/23 12:46:28;;;;;;;;;24.50;23.75;;;;;;;;5001899;28;45450;-80
2022/01/23 12:48:53;;;;;;;;;21.50;20.25;;;;;;;;4993813;28;47015;-80
2022/01/23 12:51:19;;;;;;;;;19.25;18.75;;;;;;;;4989441;28;45710;-79
2022/01/23 12:53:45;;;;;;;;;22.00;21.67;;;;;;;;4992194;28;45610;-79
2022/01/23 12:56:12;;;;;;;;;17.00;13.75;;;;;;;;5007418;28;45425;-82
2022/01/23 12:58:38;;;;;;;;;19.25;16.75;;;;;;;;4989970;28;47393;-81
2022/01/23 13:01:05;;;;;;;;;19.75;15.50;;;;;;;;5001751;28;45197;-80
2022/01/23 13:03:30;;;;;;;;;22.75;22.00;;;;;;;;4995804;28;45907;-80
2022/01/23 13:05:56;;;;;;;;;23.00;20.00;;;;;;;;4999253;28;45054;-81
2022/01/23 13:08:29;;;;;;;;;20.50;19.75;;;;;;;;4967785;28;47097;-80
2022/01/23 13:16:15;;;;;;;;;24.00;22.50;;;;;;;;4990593;28;44989;-79
2022/01/23 13:19:03;;;;;;;;;22.25;21.25;;;;;;;;4996068;28;46259;-80
2022/01/23 13:29:57;;;;;;;;;23.33;22.00;;;;;;;;4988033;28;46213;-80
2022/01/23 13:35:03;;;;;;;;;25.00;21.25;;;;;;;;5007991;28;45298;-82
2022/01/23 13:37:31;;;;;;;;;26.75;22.75;;;;;;;;4975126;28;45822;-86
2022/01/23 13:40:01;;;;;;;;;22.00;18.25;;;;;;;;4999087;28;46157;-84
2022/01/23 13:59:06;;;;;;;;;33.75;30.75;;;;;;;;4992290;28;45745;-82
2022/01/23 14:01:46;;;;;;;;;33.25;30.25;;;;;;;;4973393;28;48375;-84
2022/01/23 14:04:13;;;;;;;;;27.25;20.25;;;;;;;;4978207;28;45304;-83
2022/01/23 14:06:38;;;;;;;;;29.00;24.75;;;;;;;;4994371;28;45101;-83
2022/01/23 14:09:03;;;;;;;;;21.00;18.33;;;;;;;;4981432;28;45454;-82
2022/01/23 14:11:29;;;;;;;;;26.33;22.33;;;;;;;;4997198;28;45990;-81
2022/01/23 14:13:54;;;;;;;;;27.33;26.00;;;;;;;;4980397;28;45714;-84
2022/01/23 14:16:26;;;;;;;;;20.67;19.33;;;;;;;;4997085;28;45468;-81
2022/01/23 14:18:52;;;;;;;;;22.25;17.00;;;;;;;;5009324;28;45249;-80
2022/01/23 14:21:19;;;;;;;;;19.33;16.33;;;;;;;;4990826;28;46581;-80
2022/01/23 14:23:52;;;;;;;;;17.50;17.25;;;;;;;;5009601;28;45502;-83
2022/01/23 14:26:17;;;;;;;;;23.25;19.25;;;;;;;;5012844;28;45244;-81
2022/01/23 14:28:46;;;;;;;;;18.33;16.67;;;;;;;;5009772;28;45137;-81
2022/01/23 14:31:17;;;;;;;;;24.75;21.00;;;;;;;;5002399;28;45572;-82
2022/01/23 14:33:43;;;;;;;;;22.25;20.50;;;;;;;;4991382;28;45476;-78
2022/01/23 14:36:12;;;;;;;;;31.25;26.75;;;;;;;;4989744;28;45723;-83
2022/01/23 14:38:38;;;;;;;;;34.50;30.00;;;;;;;;4991291;28;45439;-84
2022/01/23 14:41:09;;;;;;;;;40.75;32.25;;;;;;;;4990129;28;46011;-82
2022/01/23 14:43:39;;;;;;;;;27.50;23.25;;;;;;;;4990570;28;45851;-78
2022/01/23 14:46:06;;;;;;;;;35.50;28.50;;;;;;;;4990707;28;45391;-78
2022/01/23 14:48:37;;;;;;;;;33.50;32.00;;;;;;;;4993303;28;45483;-82
2022/01/23 14:51:04;;;;;;;;;28.25;27.25;;;;;;;;4989782;28;45612;-82
2022/01/23 14:53:30;;;;;;;;;24.75;22.75;;;;;;;;4992160;28;45927;-79
2022/01/23 14:55:56;;;;;;;;;23.25;21.00;;;;;;;;4996373;28;45562;-83
2022/01/23 14:58:22;;;;;;;;;23.00;19.75;;;;;;;;4999387;28;45424;-84
2022/01/23 15:00:52;;;;;;;;;21.25;19.75;;;;;;;;4994470;28;45534;-81
2022/01/23 15:03:17;;;;;;;;;29.00;27.25;;;;;;;;4991961;28;45464;-78
2022/01/23 15:05:43;;;;;;;;;25.00;25.00;;;;;;;;4997346;28;45530;-83
2022/01/23 15:08:09;;;;;;;;;25.33;23.33;;;;;;;;4993437;28;45743;-85
2022/01/23 15:10:35;;;;;;;;;25.25;22.75;;;;;;;;4994137;28;45496;-84
2022/01/23 15:13:01;;;;;;;;;32.50;29.75;;;;;;;;4993223;28;45371;-87
2022/01/23 15:15:27;;;;;;;;;29.50;26.75;;;;;;;;4978460;28;45779;-79
2022/01/23 15:17:52;;;;;;;;;33.75;30.25;;;;;;;;4982229;28;45731;-80
2022/01/23 15:20:18;;;;;;;;;25.75;21.50;;;;;;;;4986020;28;47532;-79
2022/01/23 15:22:43;;;;;;;;;27.00;22.67;;;;;;;;4998777;28;45892;-85
2022/01/23 15:25:10;;;;;;;;;30.00;25.25;;;;;;;;5011516;28;45446;-85
2022/01/23 15:27:36;;;;;;;;;26.25;23.75;;;;;;;;4990228;28;45668;-80
2022/01/23 15:30:01;;;;;;;;;24.33;23.67;;;;;;;;4975261;28;46876;-78
2022/01/23 15:32:26;;;;;;;;;29.75;25.50;;;;;;;;4975154;28;45600;-80
2022/01/23 15:34:52;;;;;;;;;26.67;24.33;;;;;;;;4971959;28;45673;-84
2022/01/23 15:37:17;;;;;;;;;34.75;30.00;;;;;;;;4990769;28;45346;-85
2022/01/23 15:39:43;;;;;;;;;25.00;21.50;;;;;;;;4973922;28;46767;-79
2022/01/23 15:42:08;;;;;;;;;23.75;21.75;;;;;;;;4976190;28;45604;-82
2022/01/23 15:44:34;;;;;;;;;23.75;22.25;;;;;;;;4992006;28;45347;-86
2022/01/23 15:46:59;;;;;;;;;29.00;28.00;;;;;;;;4999990;28;45610;-82
2022/01/23 15:49:24;;;;;;;;;29.33;24.00;;;;;;;;4996867;28;45849;-79
2022/01/23 15:51:49;;;;;;;;;21.67;21.67;;;;;;;;4989615;28;45541;-85
2022/01/23 15:54:16;;;;;;;;;35.00;29.00;;;;;;;;4990377;28;45428;-79
2022/01/23 15:56:42;;;;;;;;;24.25;22.50;;;;;;;;4989899;28;45452;-84
2022/01/23 15:59:07;;;;;;;;;31.00;24.25;;;;;;;;4972243;28;46139;-81
2022/01/23 16:01:34;;;;;;;;;34.33;30.00;;;;;;;;4990339;28;45354;-81
2022/01/23 16:03:59;;;;;;;;;28.00;25.25;;;;;;;;4989831;28;45599;-86
2022/01/23 16:06:25;;;;;;;;;27.00;23.67;;;;;;;;4990683;28;45776;-85
2022/01/23 16:08:50;;;;;;;;;32.33;26.33;;;;;;;;4992080;28;46638;-80
2022/01/23 16:11:15;;;;;;;;;31.67;28.00;;;;;;;;4996169;28;45631;-83
2022/01/23 16:13:41;;;;;;;;;28.00;27.33;;;;;;;;4993598;28;45347;-78
2022/01/23 16:16:07;;;;;;;;;35.25;32.75;;;;;;;;4990684;28;45491;-84
2022/01/23 16:18:32;;;;;;;;;30.25;28.00;;;;;;;;4989598;28;45539;-79
2022/01/23 16:20:57;;;;;;;;;27.00;25.33;;;;;;;;4989797;28;45337;-79
2022/01/23 16:23:22;;;;;;;;;29.67;27.33;;;;;;;;4989446;28;45543;-85
2022/01/23 16:25:48;;;;;;;;;29.33;24.33;;;;;;;;4989254;28;45316;-80
2022/01/23 16:28:13;;;;;;;;;23.33;22.33;;;;;;;;4989841;28;46385;-83
2022/01/23 16:30:43;;;;;;;;;25.00;23.00;;;;;;;;4989926;28;45489;-78
2022/01/23 16:33:08;;;;;;;;;28.75;25.50;;;;;;;;4989125;28;45370;-82
2022/01/23 16:35:34;;;;;;;;;27.33;23.67;;;;;;;;4989902;28;45716;-82
2022/01/23 16:37:59;;;;;;;;;32.33;29.00;;;;;;;;4989345;28;45488;-86
2022/01/23 16:40:24;;;;;;;;;36.67;33.00;;;;;;;;4990155;28;45700;-83
2022/01/23 16:42:49;;;;;;;;;30.33;28.33;;;;;;;;4989684;28;45266;-85
2022/01/23 16:45:14;;;;;;;;;29.00;27.00;;;;;;;;4989407;28;45397;-85
2022/01/23 16:47:40;;;;;;;;;32.67;26.00;;;;;;;;4989203;28;46222;-85
2022/01/23 16:50:05;;;;;;;;;36.25;34.25;;;;;;;;4989147;28;45796;-78
2022/01/23 16:52:31;;;;;;;;;38.00;31.50;;;;;;;;4989562;28;45341;-79
2022/01/23 16:54:56;;;;;;;;;26.33;25.33;;;;;;;;4989472;28;45437;-83
2022/01/23 16:57:21;;;;;;;;;30.00;27.50;;;;;;;;4989355;28;46024;-85
2022/01/23 16:59:47;;;;;;;;;29.00;26.00;;;;;;;;4970755;28;45393;-78
2022/01/23 17:02:12;;;;;;;;;36.75;32.25;;;;;;;;4989358;28;45471;-86
2022/01/23 17:04:37;;;;;;;;;39.00;33.67;;;;;;;;4974186;28;45612;-80
2022/01/23 17:07:02;;;;;;;;;29.33;26.67;;;;;;;;4990864;28;46289;-86
2022/01/23 17:09:30;;;;;;;;;33.67;30.00;;;;;;;;4976881;28;45352;-79
2022/01/23 17:11:56;;;;;;;;;32.25;31.25;;;;;;;;4990917;28;45376;-84
2022/01/23 17:14:21;;;;;;;;;25.75;23.25;;;;;;;;4989753;28;45374;-85
2022/01/23 17:16:47;;;;;;;;;36.00;33.00;;;;;;;;4988575;28;45474;-85
2022/01/23 17:19:12;;;;;;;;;41.50;37.50;;;;;;;;4989082;28;45597;-81
2022/01/23 17:21:37;;;;;;;;;34.00;33.00;;;;;;;;4989057;28;45536;-80
2022/01/23 17:24:02;;;;;;;;;32.00;27.00;;;;;;;;4989059;28;45452;-85
2022/01/23 17:26:28;;;;;;;;;29.50;28.25;;;;;;;;4970744;28;46304;-83
2022/01/23 17:28:53;;;;;;;;;34.50;29.25;;;;;;;;4988603;28;45350;-79
2022/01/23 17:31:18;;;;;;;;;33.33;29.33;;;;;;;;4989078;28;46383;-79
2022/01/23 17:33:44;;;;;;;;;27.33;26.33;;;;;;;;4988582;28;45483;-83
2022/01/23 17:36:09;;;;;;;;;38.50;32.75;;;;;;;;4990827;28;45345;-79
2022/01/23 17:38:37;;;;;;;;;41.75;31.75;;;;;;;;4992708;28;45570;-85
2022/01/23 17:41:03;;;;;;;;;36.00;34.00;;;;;;;;4973922;28;45538;-82
2022/01/23 17:43:28;;;;;;;;;56.00;45.25;;;;;;;;4992234;28;45403;-78
2022/01/23 17:45:55;;;;;;;;;41.67;33.00;;;;;;;;4991841;28;46099;-81